Allen, Maryland
Current Conditions -  °F | °C
As of 4:54 PM on Saturday 20 Dec 2014 (Local Time) from KSBY Reporting Station
Overcast Overcast  
Wind Chill: 34°   Ceiling: 11000
Heat Index: 38°   Visibility: 10mi
Dew Point: 25°   Wind: 5mph
Humidity: 60%   Direction: 260°W
Pressure: 30.27"   Gusts: NA
Location:  38.29°N, 75.69°W
Report Text: KSBY 202154Z 26004KT 10SM OVC110 03/M04 A3027 RMK AO2 SLP254 T00331039
Loading
Personal Weather Stations






























Interactive Weather Map New forecast layout! Learn more

10-Day Weather Forecast

Advertisements
Track Severe Weather on mobile